Latest Weather Observations for Maria Island

IDT60801

Issued at 2:35 pm EST Monday 21 April 2014 (issued every 30 minutes, with the page automatically refreshed every 10 minutes)

About weather observations | Map of weather stations | Latest weather observations for TAS | Other Formats
Station Details ID: 092124 Name: MARIA ISLAND (POINT LESUEUR) Lat: -42.66 Lon: 148.02 Height: 28.0 m
Data from the previous 72 hours. | See also: Recent months at Maria Island
Date/Time
EST
Temp
°C
App
Temp
°C
Dew
Point
Rel
Hum
%
Delta-T
°C
Wind Press
QNH
hPa
Press
MSL
hPa
Rain
since 9 am
mm
Dir
 
Spd
km/h
Gust
km/h
Spd
kts
Gust
kts
21/02:30pm 13.7 8.7 6.6 62 3.4 NNE 22 30 12 16 1014.6 - 0.0
21/02:00pm 13.4 7.9 5.8 60 3.6 NNE 24 28 13 15 1015.0 1015.0 0.0
21/01:30pm 13.6 7.9 4.7 55 4.1 NNE 24 33 13 18 1015.2 - 0.0
21/01:00pm 13.7 8.0 4.8 55 4.1 N 24 33 13 18 1015.7 1015.7 0.0
21/12:30pm 14.2 8.8 4.5 52 4.5 N 22 28 12 15 1016.4 - 0.0
21/12:00pm 13.4 8.4 4.6 55 4.0 N 20 26 11 14 1016.8 1016.8 0.0
21/11:30am 13.4 10.0 4.0 53 4.3 N 11 15 6 8 1017.4 - 0.0
21/11:00am 12.6 9.5 3.8 55 3.9 N 9 13 5 7 1017.8 1017.8 0.0
21/10:30am 12.4 9.4 2.0 49 4.5 NNW 7 11 4 6 1018.2 - 0.0
21/10:00am 12.3 9.3 1.9 49 4.5 N 7 11 4 6 1018.3 1018.3 0.0
21/09:30am 11.9 9.4 1.3 48 4.5 N 4 7 2 4 1018.3 - 0.0
21/09:00am 11.3 8.4 1.5 51 4.1 NW 6 9 3 5 1018.7 1018.7 0.0
21/08:30am 10.4 7.6 3.0 60 3.2 WNW 7 9 4 5 1018.8 - 0.0
21/08:00am 9.3 5.8 3.3 66 2.6 NW 11 13 6 7 1018.7 1018.7 0.0
21/07:30am 9.4 6.6 2.3 61 3.0 NNW 6 9 3 5 1018.5 - 0.0
21/07:00am 8.3 5.1 3.0 69 2.2 WNW 9 11 5 6 1018.2 1018.2 0.0
21/06:30am 8.8 5.2 3.0 67 2.5 W 11 15 6 8 1017.7 - 0.0
21/06:00am 8.4 5.1 2.6 67 2.4 W 9 13 5 7 1017.6 1017.6 0.0
21/05:30am 8.5 4.4 2.5 66 2.5 W 13 15 7 8 1017.4 - 0.0
21/05:00am 8.3 3.6 3.2 70 2.2 W 17 22 9 12 1017.2 1017.2 0.0
21/04:30am 8.2 3.5 3.3 71 2.1 WNW 17 20 9 11 1017.0 - 0.0
21/04:00am 8.3 3.2 3.0 69 2.2 WNW 19 24 10 13 1016.8 1016.8 0.0
21/03:30am 8.0 3.4 3.5 73 1.9 W 17 20 9 11 1016.6 - 0.0
21/03:00am 8.9 4.5 2.9 66 2.6 WNW 15 20 8 11 1016.4 1016.4 0.0
21/02:30am 9.4 4.5 2.0 60 3.1 W 17 22 9 12 1016.6 - 0.0
21/02:00am 10.0 5.8 1.6 56 3.5 WSW 13 19 7 10 1016.3 1016.3 0.0
21/01:30am 9.9 6.1 2.0 58 3.3 W 11 17 6 9 1016.2 - 0.0
21/01:00am 10.5 5.1 2.6 58 3.4 WSW 20 26 11 14 1015.7 1015.7 0.0
21/12:30am 10.7 4.9 2.5 57 3.5 WSW 22 30 12 16 1015.3 - 0.0
21/12:00am 10.6 4.6 3.2 60 3.2 WSW 24 30 13 16 1015.1 1015.1 0.0
 
Date/Time
EST
Temp
°C
App
Temp
°C
Dew
Point
Rel
Hum
%
Delta-T
°C
Wind Press
QNH
hPa
Press
MSL
hPa
Rain
since 9 am
mm
Dir
 
Spd
km/h
Gust
km/h
Spd
kts
Gust
kts
20/11:30pm 11.0 3.4 4.0 62 3.1 SW 33 41 18 22 1014.7 - 0.0
20/11:00pm 11.2 3.8 4.0 61 3.2 SW 32 39 17 21 1014.6 1014.6 0.0
20/10:30pm 11.2 4.2 4.0 61 3.2 SW 30 35 16 19 1014.5 - 0.0
20/10:00pm 11.4 4.1 4.4 62 3.2 WSW 32 37 17 20 1014.4 1014.4 0.0
20/09:30pm 11.9 4.2 5.5 65 3.0 SW 35 43 19 23 1014.1 - 0.0
20/09:00pm 12.2 5.6 4.2 58 3.6 WSW 28 33 15 18 1013.6 1013.6 0.0
20/08:30pm 12.8 5.4 4.0 55 4.0 WSW 32 43 17 23 1012.9 - 0.0
20/08:00pm 12.8 7.2 7.0 68 2.8 SW 26 30 14 16 1012.4 1012.4 0.0
20/07:30pm 13.2 8.0 8.9 75 2.2 SW 26 32 14 17 1011.8 - 0.0
20/07:00pm 13.0 8.1 9.8 81 1.6 S 26 35 14 19 1011.4 1011.4 0.0
20/06:30pm 13.2 7.2 10.2 82 1.6 S 32 37 17 20 1010.8 - 0.0
20/06:00pm 14.2 7.8 10.8 80 1.8 SSW 35 44 19 24 1009.9 1009.9 0.0
20/05:30pm 14.8 10.8 10.4 75 2.3 SSW 22 30 12 16 1009.4 - 0.0
20/05:00pm 15.4 11.5 10.8 74 2.4 SSW 22 32 12 17 1008.7 1008.7 0.0
20/04:30pm 17.7 12.3 8.0 53 4.9 W 26 35 14 19 1008.1 - 0.0
20/04:00pm 17.8 12.3 7.5 51 5.2 W 26 39 14 21 1007.6 1007.6 0.0
20/03:30pm 17.6 13.2 7.4 51 5.1 WNW 20 28 11 15 1007.4 - 0.0
20/03:00pm 17.5 14.2 8.1 54 4.8 WNW 15 28 8 15 1007.2 1007.2 0.0
20/02:30pm 17.1 12.0 7.7 54 4.7 NNW 24 33 13 18 1007.0 - 0.0
20/02:00pm 17.1 10.6 8.3 56 4.5 NNW 32 35 17 19 1006.8 1006.7 0.0
20/01:30pm 16.2 10.0 7.9 58 4.2 NNW 30 37 16 20 1006.9 - 0.0
20/01:00pm 16.4 10.7 8.4 59 4.1 N 28 33 15 18 1007.6 1007.6 0.0
20/12:30pm 14.7 8.6 8.2 65 3.3 N 30 35 16 19 1008.1 - 0.0
20/12:00pm 14.8 9.6 7.1 60 3.8 N 24 33 13 18 1008.6 1008.6 0.0
20/11:30am 13.6 7.8 6.2 61 3.5 N 26 30 14 16 1009.2 - 0.0
20/11:00am 14.4 8.6 6.3 58 3.9 N 26 30 14 16 1009.6 1009.6 0.0
20/10:30am 13.3 7.8 5.7 60 3.6 N 24 32 13 17 1010.0 - 0.0
20/10:00am 12.2 7.4 5.4 63 3.2 N 20 24 11 13 1010.6 1010.6 0.0
20/09:30am 10.6 5.3 5.2 69 2.5 N 22 28 12 15 1010.9 - 0.0
20/09:00am 10.4 5.7 5.0 69 2.4 N 19 24 10 13 1011.3 1011.3 0.0
20/08:30am 9.9 4.6 4.9 71 2.3 NNW 22 28 12 15 1011.6 - 0.0
20/08:00am 10.2 5.4 5.4 72 2.2 NNW 20 26 11 14 1011.4 1011.4 0.0
20/07:30am 10.2 5.4 4.6 68 2.5 NNW 19 20 10 11 1011.5 - 0.0
20/07:00am 9.5 5.1 4.7 72 2.1 NNW 17 22 9 12 1011.5 1011.5 0.0
20/06:30am 8.6 5.3 4.4 75 1.8 WNW 11 15 6 8 1011.3 - 0.0
20/06:00am 8.9 5.6 4.5 74 1.9 NW 11 13 6 7 1011.3 1011.3 0.0
20/05:30am 9.4 5.6 3.8 68 2.4 NW 13 19 7 10 1011.4 - 0.0
20/05:00am 9.5 5.2 3.5 66 2.6 NW 15 19 8 10 1011.5 1011.5 0.0
20/04:30am 9.6 4.9 2.9 63 2.9 WNW 17 20 9 11 1011.7 - 0.0
20/04:00am 9.9 5.2 3.4 64 2.8 W 17 20 9 11 1011.9 1011.9 0.0
20/03:30am 10.1 5.2 4.0 66 2.7 W 19 24 10 13 1011.9 - 0.0
20/03:00am 9.9 4.9 3.6 65 2.8 W 19 24 10 13 1012.3 1012.3 0.0
20/02:30am 10.2 6.4 3.7 64 2.9 W 13 19 7 10 1012.6 - 0.0
20/02:00am 9.8 6.6 3.3 64 2.8 W 9 11 5 6 1012.8 1012.8 0.0
20/01:30am 10.1 7.2 2.5 59 3.2 W 7 13 4 7 1013.0 - 0.0
20/01:00am 9.9 6.4 3.6 65 2.8 W 11 13 6 7 1013.3 1013.3 0.0
20/12:30am 10.2 5.8 2.6 59 3.3 W 15 20 8 11 1013.4 - 0.0
20/12:00am 10.4 6.4 3.0 60 3.2 WSW 13 19 7 10 1013.4 1013.4 0.0
 
Date/Time
EST
Temp
°C
App
Temp
°C
Dew
Point
Rel
Hum
%
Delta-T
°C
Wind Press
QNH
hPa
Press
MSL
hPa
Rain
since 9 am
mm
Dir
 
Spd
km/h
Gust
km/h
Spd
kts
Gust
kts
19/11:30pm 10.8 7.7 3.8 62 3.1 W 9 13 5 7 1013.8 - 0.0
19/11:00pm 11.2 8.1 3.5 59 3.4 W 9 15 5 8 1014.2 1014.2 0.0
19/10:30pm 11.4 7.5 3.4 58 3.5 W 13 19 7 10 1014.4 - 0.0
19/10:00pm 11.4 7.7 4.2 61 3.2 W 13 19 7 10 1014.6 1014.6 0.0
19/09:30pm 11.5 7.1 4.5 62 3.2 WSW 17 20 9 11 1014.7 - 0.0
19/09:00pm 12.0 7.3 5.2 63 3.1 WSW 19 24 10 13 1014.8 1014.8 0.0
19/08:30pm 11.9 8.1 5.8 66 2.8 WSW 15 19 8 10 1014.8 - 0.0
19/08:00pm 12.0 8.2 5.9 66 2.9 SW 15 20 8 11 1014.7 1014.7 0.0
19/07:30pm 11.9 8.2 6.2 68 2.7 SW 15 19 8 10 1014.7 - 0.0
19/07:00pm 11.8 8.1 6.3 69 2.6 SW 15 19 8 10 1014.7 1014.7 0.0
19/06:30pm 11.7 7.7 6.6 71 2.4 SW 17 17 9 9 1014.6 - 0.0
19/06:00pm 11.9 7.5 6.6 70 2.5 SSW 19 20 10 11 1014.5 1014.5 0.0
19/05:30pm 12.3 7.4 7.0 70 2.5 SSW 22 28 12 15 1014.3 - 0.0
19/05:00pm 12.5 7.8 5.9 64 3.1 S 20 26 11 14 1014.3 1014.3 0.0
19/04:30pm 12.9 8.5 6.5 65 3.1 SSW 19 24 10 13 1014.1 - 0.0
19/04:00pm 13.1 9.1 5.0 58 3.8 SW 15 22 8 12 1014.2 1014.2 0.0
19/03:30pm 12.9 7.0 5.8 62 3.3 SSW 26 35 14 19 1014.0 - 0.0
19/03:00pm 13.2 7.3 5.9 61 3.4 SSW 26 32 14 17 1014.0 1014.0 0.0
19/02:30pm 13.1 5.9 4.8 57 3.8 SSW 32 35 17 19 1014.0 - 0.0
19/02:00pm 13.2 5.9 4.6 56 4.0 SSW 32 39 17 21 1014.0 1014.0 0.0
19/01:30pm 13.6 6.4 5.0 56 4.0 SSW 32 37 17 20 1014.0 - 0.0
19/01:00pm 14.3 7.3 4.0 50 4.7 SSW 30 39 16 21 1014.1 1014.1 0.0
19/12:30pm 13.3 5.0 4.2 54 4.1 SW 37 44 20 24 1014.5 - 0.0
19/12:00pm 14.0 6.5 4.6 53 4.3 SW 33 44 18 24 1014.6 1014.6 0.0
19/11:30am 13.0 5.1 4.2 55 4.0 SW 35 46 19 25 1014.7 - 0.0
19/11:00am 13.3 4.6 3.9 53 4.3 SW 39 50 21 27 1014.8 1014.8 0.0
19/10:30am 12.9 4.5 3.6 53 4.2 SW 37 48 20 26 1014.8 - 0.0
19/10:00am 12.6 4.4 4.8 59 3.6 SW 37 48 20 26 1014.8 1014.8 0.0
19/09:47am 12.4 4.1 4.4 58 3.6 SW 37 56 20 30 1014.8 - 0.0
19/09:30am 12.2 4.8 5.1 62 3.3 SW 33 48 18 26 1014.8 - 0.0
19/09:00am 11.7 4.2 4.4 61 3.3 SW 33 46 18 25 1014.7 1014.7 4.0
19/08:30am 11.2 5.1 4.9 65 2.9 WSW 26 37 14 20 1014.8 - 4.0
19/08:00am 10.5 4.7 4.4 66 2.7 WSW 24 32 13 17 1014.6 1014.6 4.0
19/07:30am 10.6 4.6 5.2 69 2.5 WSW 26 33 14 18 1014.3 - 4.0
19/07:00am 10.1 4.4 5.1 71 2.3 WSW 24 35 13 19 1013.9 1013.9 4.0
19/06:30am 10.4 3.2 5.0 69 2.4 WSW 32 43 17 23 1013.7 - 4.0
19/06:00am 10.3 3.4 4.7 68 2.5 WSW 30 39 16 21 1013.3 1013.3 4.0
19/05:30am 10.4 3.8 4.3 66 2.7 WSW 28 39 15 21 1013.0 - 4.0
19/05:00am 10.4 3.9 4.5 67 2.6 WSW 28 41 15 22 1012.8 1012.8 4.0
19/04:30am 10.6 4.1 4.7 67 2.7 WSW 28 35 15 19 1012.8 - 4.0
19/04:00am 10.6 4.0 4.3 65 2.8 WSW 28 37 15 20 1012.8 1012.8 4.0
19/03:30am 10.9 3.6 4.6 65 2.8 WSW 32 41 17 22 1012.6 - 4.0
19/03:00am 11.1 3.7 5.0 66 2.8 WSW 33 41 18 22 1012.6 1012.6 4.0
19/02:30am 10.8 2.5 4.3 64 2.9 WSW 37 50 20 27 1012.5 - 4.0
19/02:19am 11.0 3.5 4.5 64 2.9 WSW 33 56 18 30 1012.3 - 4.0
19/02:00am 10.9 2.7 4.6 65 2.8 WSW 37 50 20 27 1012.3 1012.3 4.0
19/01:30am 10.8 3.5 4.5 65 2.8 WSW 32 43 17 23 1012.1 - 4.0
19/01:00am 10.9 4.4 4.6 65 2.8 WSW 28 43 15 23 1012.2 1012.2 4.0
19/12:30am 11.0 4.2 5.1 67 2.7 WSW 30 43 16 23 1012.3 - 4.0
19/12:00am 11.3 4.5 5.2 66 2.8 WSW 30 39 16 21 1012.2 1012.2 4.0
 
Date/Time
EST
Temp
°C
App
Temp
°C
Dew
Point
Rel
Hum
%
Delta-T
°C
Wind Press
QNH
hPa
Press
MSL
hPa
Rain
since 9 am
mm
Dir
 
Spd
km/h
Gust
km/h
Spd
kts
Gust
kts
18/11:30pm 11.4 4.6 5.1 65 2.9 WSW 30 43 16 23 1012.2 - 4.0
18/11:00pm 11.7 4.0 5.3 65 3.0 SW 35 44 19 24 1012.1 1012.1 4.0
18/10:30pm 11.7 3.3 5.8 67 2.8 SW 39 52 21 28 1011.9 - 4.0
18/10:00pm 12.0 4.5 6.1 67 2.8 WSW 35 50 19 27 1011.8 1011.8 4.0
18/09:30pm 11.6 6.4 5.5 66 2.8 SW 22 33 12 18 1012.0 - 4.0
18/09:00pm 11.9 4.9 5.8 66 2.9 SW 32 44 17 24 1011.6 1011.6 4.0
18/08:30pm 12.3 4.4 6.1 66 2.9 WSW 37 46 20 25 1011.2 - 4.0
18/08:00pm 12.5 4.2 6.1 65 3.0 SW 39 48 21 26 1011.0 1011.0 4.0
18/07:30pm 12.4 4.6 4.9 60 3.4 WSW 35 46 19 25 1010.7 - 4.0
18/07:00pm 12.6 4.9 5.5 62 3.3 SW 35 50 19 27 1010.4 1010.4 4.0
18/06:30pm 12.6 4.9 5.5 62 3.3 SW 35 44 19 24 1010.2 - 4.0
18/06:00pm 12.9 4.9 5.6 61 3.4 SW 37 50 20 27 1009.8 1009.8 4.0
18/05:35pm 13.1 5.8 5.3 59 3.6 SW 33 57 18 31 1009.4 - 4.0
18/05:30pm 13.2 5.8 5.1 58 3.8 SW 33 41 18 22 1009.4 - 4.0
18/05:00pm 13.6 4.9 6.0 60 3.6 SW 41 54 22 29 1008.6 1008.6 4.0
18/04:32pm 14.3 5.7 6.6 60 3.7 SW 41 61 22 33 1008.1 - 4.0
18/04:30pm 14.3 6.1 6.6 60 3.7 SW 39 50 21 27 1008.2 - 4.0
18/04:00pm 14.0 5.5 6.8 62 3.5 SW 41 54 22 29 1007.8 1007.8 4.0
18/03:32pm 14.1 8.0 6.7 61 3.6 SW 28 57 15 31 1007.5 - 4.0
18/03:30pm 14.3 8.6 6.9 61 3.6 SW 26 37 14 20 1007.7 - 4.0
18/03:00pm 13.4 7.4 7.2 66 3.0 SW 28 35 15 19 1007.4 1007.4 4.0

Other Formats:

Comma delimited format used in spreadsheet applications
http://www.bom.gov.au/fwo/IDT60801/IDT60801.95988.axf

JavaScript Object Notation format (JSON) in row-major order
http://www.bom.gov.au/fwo/IDT60801/IDT60801.95988.json